createdAt,value
2019-05-02T03:49:40.845Z,67.53
2019-05-02T03:52:09.108Z,65.13
2019-05-02T03:54:48.352Z,66.83
2019-05-02T03:57:07.672Z,66.13
2019-05-02T03:59:38.941Z,64.93
2019-05-02T04:02:06.197Z,65.60
2019-05-02T04:04:34.638Z,64.40
2019-05-02T04:07:03.433Z,65.87
2019-05-02T04:09:38.919Z,66.10
2019-05-02T04:12:04.965Z,63.87
2019-05-02T04:14:37.697Z,66.90
2019-05-02T04:17:03.913Z,66.53
2019-05-02T04:19:34.838Z,63.37
2019-05-02T04:22:08.624Z,63.57
2019-05-02T04:24:33.558Z,65.13
2019-05-02T04:27:02.066Z,61.70
2019-05-02T04:29:33.071Z,63.90
2019-05-02T04:32:04.294Z,63.87
2019-05-02T04:34:31.864Z,63.70
2019-05-02T04:37:03.646Z,64.13
2019-05-02T04:39:30.733Z,64.93
2019-05-02T04:42:05.473Z,64.00
2019-05-02T04:44:39.724Z,62.73
2019-05-02T04:47:09.835Z,64.70
2019-05-02T04:49:35.800Z,63.00
2019-05-02T04:52:07.077Z,63.70
2019-05-02T04:54:32.498Z,64.33
2019-05-02T04:57:02.347Z,62.03
2019-05-02T04:59:32.994Z,65.90
2019-05-02T05:02:01.498Z,65.73
2019-05-02T05:04:33.128Z,64.20
2019-05-02T05:07:01.195Z,62.53
2019-05-02T05:09:29.822Z,63.67
2019-05-02T05:12:01.314Z,65.23
2019-05-02T05:14:32.859Z,65.60
2019-05-02T05:16:58.512Z,63.30
2019-05-02T05:19:30.874Z,65.53
2019-05-02T05:22:04.479Z,63.90
2019-05-02T05:24:32.929Z,66.10
2019-05-02T05:27:00.123Z,64.53
2019-05-02T05:29:29.113Z,69.17
2019-05-02T05:32:05.360Z,67.33
2019-05-02T05:34:32.472Z,67.53
2019-05-02T05:36:58.380Z,67.50
2019-05-02T05:39:28.192Z,69.70
2019-05-02T05:41:57.813Z,66.23
2019-05-02T05:44:28.623Z,69.37
2019-05-02T05:46:58.155Z,69.43
2019-05-02T05:49:28.259Z,68.63
2019-05-02T05:52:02.601Z,68.03
2019-05-02T05:54:28.306Z,67.63
2019-05-02T05:56:57.314Z,68.13
2019-05-02T05:59:28.276Z,68.97
2019-05-02T06:01:57.929Z,68.03
2019-05-02T06:04:32.666Z,68.63
2019-05-02T06:06:59.450Z,70.40
2019-05-02T06:09:31.084Z,68.90
2019-05-02T06:11:56.994Z,69.90
2019-05-02T06:14:26.325Z,69.80
2019-05-02T06:16:54.908Z,71.07
2019-05-02T06:19:23.352Z,69.17
2019-05-02T06:21:51.757Z,70.07
2019-05-02T06:24:20.164Z,72.63
2019-05-02T06:26:49.673Z,70.00
2019-05-02T06:29:20.796Z,71.37
2019-05-02T06:31:48.923Z,71.27
2019-05-02T06:34:17.807Z,72.20
2019-05-02T06:36:46.281Z,70.97
2019-05-02T06:39:14.688Z,67.47
2019-05-02T06:41:43.265Z,69.47
2019-05-02T06:44:11.885Z,70.17
2019-05-02T06:46:40.377Z,69.50
2019-05-02T06:49:08.789Z,69.03
2019-05-02T06:51:37.222Z,63.50
2019-05-02T06:54:05.637Z,62.63
2019-05-02T06:56:34.126Z,62.50
2019-05-02T06:59:03.745Z,60.37
2019-05-02T07:01:32.603Z,52.87
2019-05-02T07:04:03.994Z,52.73
2019-05-02T07:06:40.039Z,55.47
2019-05-02T07:09:01.489Z,55.43
2019-05-02T07:11:33.144Z,54.80
2019-05-02T07:14:12.435Z,54.67
2019-05-02T07:16:38.476Z,56.60
2019-05-02T07:19:21.602Z,56.70
2019-05-02T07:21:53.035Z,54.75
2019-05-02T07:24:19.605Z,54.83
2019-05-02T07:26:52.203Z,54.60
2019-05-02T07:29:21.908Z,54.20
2019-05-02T07:31:48.929Z,48.50
2019-05-02T07:34:17.496Z,52.33
2019-05-02T07:36:46.009Z,51.57
2019-05-02T07:39:14.427Z,55.40
2019-05-02T07:41:42.849Z,44.90
2019-05-02T07:44:11.273Z,44.17
2019-05-02T07:46:51.244Z,46.97
2019-05-02T07:49:09.825Z,49.67
2019-05-02T07:51:38.268Z,49.98
2019-05-02T07:54:07.597Z,52.13
2019-05-02T07:56:35.996Z,54.07
2019-05-02T07:59:04.533Z,56.40
2019-05-02T08:01:32.960Z,60.53
2019-05-02T08:04:04.426Z,60.30
2019-05-02T08:06:35.331Z,56.47
2019-05-02T08:09:07.015Z,55.67
2019-05-02T08:11:32.267Z,58.07
2019-05-02T08:14:02.004Z,56.23
2019-05-02T08:16:30.415Z,57.17
2019-05-02T08:19:01.457Z,58.20
2019-05-02T08:21:32.709Z,57.80
2019-05-02T08:24:02.254Z,54.93
2019-05-02T08:26:30.901Z,56.17
2019-05-02T08:29:00.984Z,58.93
2019-05-02T08:31:30.219Z,57.60
2019-05-02T08:33:58.781Z,59.23
2019-05-02T08:36:27.213Z,57.67
2019-05-02T08:38:55.623Z,57.73
2019-05-02T08:41:24.022Z,55.90
2019-05-02T08:43:52.457Z,58.30
2019-05-02T08:46:20.852Z,55.93
2019-05-02T08:48:50.862Z,57.80
2019-05-02T08:51:19.451Z,55.37
2019-05-02T08:53:52.038Z,52.70
2019-05-02T08:56:21.386Z,52.00
2019-05-02T08:58:49.861Z,51.50
2019-05-02T09:01:18.328Z,53.93
2019-05-02T09:03:54.988Z,51.33
2019-05-02T09:06:17.295Z,53.13
2019-05-02T09:08:51.260Z,52.80
2019-05-02T09:11:17.237Z,50.53
2019-05-02T09:13:46.098Z,49.53
2019-05-02T09:16:14.557Z,46.70
2019-05-02T09:18:50.716Z,45.30
2019-05-02T09:21:13.142Z,45.73
2019-05-02T09:23:43.884Z,46.00
2019-05-02T09:26:12.018Z,46.67
2019-05-02T09:28:42.263Z,44.70
2019-05-02T09:31:12.393Z,44.53
2019-05-02T09:33:45.230Z,44.93
2019-05-02T09:36:11.940Z,45.10
2019-05-02T09:38:42.306Z,45.37
2019-05-02T09:41:16.921Z,45.73
2019-05-02T09:43:42.528Z,45.27
2019-05-02T09:46:14.998Z,45.17
2019-05-02T09:48:42.659Z,45.73
2019-05-02T09:51:17.015Z,43.77
2019-05-02T09:53:43.191Z,43.13
2019-05-02T09:56:12.711Z,43.27
2019-05-02T09:58:42.051Z,42.70
2019-05-02T10:01:18.549Z,41.63
2019-05-02T10:03:47.189Z,42.00
2019-05-02T10:06:18.243Z,43.90
2019-05-02T10:08:46.737Z,41.07
2019-05-02T10:11:16.877Z,40.40
2019-05-02T10:13:45.398Z,42.23
2019-05-02T10:16:18.028Z,44.40
2019-05-02T10:18:44.054Z,45.37
2019-05-02T10:21:13.440Z,45.43
2019-05-02T10:23:42.822Z,43.63
2019-05-02T10:26:12.968Z,41.73
2019-05-02T10:28:49.129Z,42.43
2019-05-02T10:31:12.674Z,43.33
2019-05-02T10:33:42.056Z,42.23
2019-05-02T10:36:11.868Z,41.40
2019-05-02T10:38:42.614Z,42.33
2019-05-02T10:41:12.058Z,43.07
2019-05-02T10:43:42.289Z,41.63
2019-05-02T10:46:27.750Z,42.27
2019-05-02T10:48:56.301Z,39.80
2019-05-02T10:51:26.466Z,40.47
2019-05-02T10:53:56.587Z,40.97
2019-05-02T10:56:25.237Z,39.90
2019-05-02T10:58:53.643Z,39.13
2019-05-02T11:01:23.546Z,40.03
2019-05-02T11:03:53.630Z,39.07
2019-05-02T11:06:22.360Z,37.45
2019-05-02T11:08:52.413Z,39.27
2019-05-02T11:11:21.965Z,38.50
2019-05-02T11:14:08.823Z,37.10
2019-05-02T11:16:42.322Z,39.27
2019-05-02T11:19:13.223Z,36.03
2019-05-02T11:21:53.507Z,38.17
2019-05-02T11:24:14.257Z,39.10
2019-05-02T11:26:42.951Z,39.37
2019-05-02T11:29:12.158Z,37.63
2019-05-02T11:31:42.607Z,38.57
2019-05-02T11:34:12.383Z,38.77
2019-05-02T11:36:42.004Z,37.37
2019-05-02T11:39:18.720Z,36.47
2019-05-02T11:41:42.229Z,37.13
2019-05-02T11:44:12.148Z,35.90
2019-05-02T11:46:42.926Z,36.40
2019-05-02T11:49:12.265Z,35.73
2019-05-02T11:51:42.180Z,36.73
2019-05-02T11:54:12.739Z,35.53
2019-05-02T11:56:48.639Z,35.27
2019-05-02T11:59:14.741Z,35.73
2019-05-02T12:01:56.233Z,35.33
2019-05-02T12:04:16.860Z,34.40
2019-05-02T12:06:43.521Z,34.87
2019-05-02T12:09:13.316Z,32.98
2019-05-02T12:11:41.940Z,35.20
2019-05-02T12:14:12.227Z,34.43
2019-05-02T12:16:43.007Z,34.33
2019-05-02T12:19:12.625Z,32.20
2019-05-02T12:21:42.765Z,30.43
2019-05-02T12:24:12.674Z,30.65
2019-05-02T12:26:41.918Z,31.57
2019-05-02T12:29:12.202Z,30.13
2019-05-02T12:31:42.514Z,32.30
2019-05-02T12:34:12.038Z,29.40
2019-05-02T12:36:42.605Z,28.57
2019-05-02T12:39:12.617Z,30.60
2019-05-02T12:41:42.295Z,28.17
2019-05-02T12:44:11.749Z,28.27
2019-05-02T12:46:42.056Z,25.87
2019-05-02T12:49:23.945Z,23.37
2019-05-02T12:51:42.752Z,24.57
2019-05-02T12:54:12.344Z,24.13
2019-05-02T12:56:41.864Z,23.97
2019-05-02T12:59:11.811Z,24.20
2019-05-02T13:01:42.191Z,24.03
2019-05-02T13:04:12.553Z,24.60
2019-05-02T13:06:42.145Z,24.00
2019-05-02T13:09:12.638Z,24.50
2019-05-02T13:11:46.039Z,23.07
2019-05-02T13:14:19.173Z,22.47
2019-05-02T13:16:44.870Z,22.57
2019-05-02T13:19:13.546Z,22.23
2019-05-02T13:21:58.241Z,21.40
2019-05-02T13:24:33.434Z,22.23
2019-05-02T13:27:04.421Z,23.27
2019-05-02T13:29:32.483Z,21.40
2019-05-02T13:32:17.009Z,20.90
2019-05-02T13:34:48.323Z,19.13
2019-05-02T13:37:15.706Z,17.73
2019-05-02T13:39:57.614Z,19.13
2019-05-02T13:42:27.819Z,17.80
2019-05-02T13:45:02.302Z,17.27
2019-05-02T13:47:32.516Z,17.43
2019-05-02T13:50:03.693Z,16.93
2019-05-02T13:52:33.192Z,17.40
2019-05-02T13:55:02.059Z,18.10
2019-05-02T13:57:35.049Z,16.07
2019-05-02T14:00:02.295Z,14.40
2019-05-02T14:02:36.789Z,16.50
2019-05-02T14:05:07.461Z,15.67
2019-05-02T14:07:36.118Z,16.07
2019-05-02T14:10:24.226Z,15.70
2019-05-02T14:12:57.048Z,16.93
2019-05-02T14:15:27.158Z,16.03
2019-05-02T14:17:55.605Z,14.90
2019-05-02T14:20:24.157Z,14.37
2019-05-02T14:22:52.875Z,13.27
2019-05-02T14:25:22.390Z,14.03
2019-05-02T14:27:52.412Z,14.43
2019-05-02T14:30:35.422Z,14.60
2019-05-02T14:32:52.643Z,13.00
2019-05-02T14:35:26.408Z,14.10
2019-05-02T14:38:13.202Z,14.53
2019-05-02T14:40:46.329Z,13.73
2019-05-02T14:43:16.385Z,13.85
2019-05-02T14:45:44.818Z,14.73
2019-05-02T14:48:21.185Z,14.67
2019-05-02T14:50:46.545Z,14.73
2019-05-02T14:53:16.809Z,15.20
2019-05-02T14:55:47.060Z,15.70
2019-05-02T14:58:15.524Z,15.03
2019-05-02T15:00:47.824Z,16.37
2019-05-02T15:03:19.202Z,18.03
2019-05-02T15:05:46.255Z,17.20
2019-05-02T15:08:14.663Z,16.63
2019-05-02T15:10:52.593Z,15.97
2019-05-02T15:13:13.221Z,16.50
2019-05-02T15:15:43.502Z,16.73
2019-05-02T15:18:15.865Z,16.13
2019-05-02T15:20:43.935Z,17.20
2019-05-02T15:23:19.408Z,17.67
2019-05-02T15:25:42.540Z,17.57
2019-05-02T15:28:13.115Z,18.00
2019-05-02T15:30:48.133Z,16.82
2019-05-02T15:33:17.038Z,17.48
2019-05-02T15:35:57.171Z,20.57
2019-05-02T15:38:28.160Z,20.17
2019-05-02T15:40:59.259Z,18.80
2019-05-02T15:43:26.458Z,20.03
2019-05-02T15:45:54.904Z,19.20
2019-05-02T15:48:27.525Z,18.80
2019-05-02T15:50:55.333Z,18.57
2019-05-02T15:53:28.304Z,18.77
2019-05-02T15:55:56.730Z,19.27
2019-05-02T15:58:27.892Z,19.73
2019-05-02T16:01:01.693Z,18.93
2019-05-02T16:03:28.734Z,20.40
2019-05-02T16:05:57.224Z,21.33
2019-05-02T16:08:27.298Z,20.40
2019-05-02T16:10:55.706Z,23.37
2019-05-02T16:13:24.117Z,34.20
2019-05-02T16:15:52.679Z,23.60
2019-05-02T16:18:21.602Z,21.77
2019-05-02T16:21:04.184Z,24.30
2019-05-02T16:23:29.881Z,30.00
2019-05-02T16:25:52.387Z,31.30
2019-05-02T16:28:20.956Z,32.00
2019-05-02T16:30:52.543Z,35.40
2019-05-02T16:33:21.111Z,35.83
2019-05-02T16:35:52.833Z,38.07
2019-05-02T16:38:19.708Z,38.07
2019-05-02T16:40:48.119Z,38.50
2019-05-02T16:43:16.511Z,36.03
2019-05-02T16:45:45.122Z,35.63
2019-05-02T16:48:13.560Z,34.80
2019-05-02T16:50:44.778Z,35.60
2019-05-02T16:53:12.109Z,34.27
2019-05-02T16:55:43.411Z,53.27
2019-05-02T16:58:11.851Z,28.70
2019-05-02T17:00:44.063Z,26.67
2019-05-02T17:03:12.540Z,26.13
2019-05-02T17:05:44.212Z,27.77
2019-05-02T17:08:19.992Z,26.93
2019-05-02T17:10:53.804Z,26.90
2019-05-02T17:13:21.621Z,26.40
2019-05-02T17:15:52.153Z,22.90
2019-05-02T17:18:22.811Z,21.60
2019-05-02T17:20:53.509Z,20.17
2019-05-02T17:23:22.230Z,20.80
2019-05-02T17:25:52.179Z,20.62
2019-05-02T17:28:22.288Z,20.10
2019-05-02T17:30:52.512Z,18.50
2019-05-02T17:33:21.761Z,17.80
2019-05-02T17:35:53.045Z,17.30
2019-05-02T17:38:27.679Z,14.87
2019-05-02T17:40:54.103Z,16.33
2019-05-02T17:43:22.540Z,14.10
2019-05-02T17:45:51.133Z,12.87
2019-05-02T17:48:19.579Z,12.20
2019-05-02T17:51:06.132Z,13.60
2019-05-02T17:53:42.484Z,14.07
2019-05-02T17:56:13.067Z,14.23
2019-05-02T17:58:45.299Z,14.87
2019-05-02T18:01:18.959Z,13.83
2019-05-02T18:03:47.373Z,14.80
2019-05-02T18:06:17.316Z,15.30
2019-05-02T18:08:46.377Z,15.90
2019-05-02T18:11:16.029Z,15.80
2019-05-02T18:13:44.461Z,15.63
2019-05-02T18:16:16.647Z,16.40
2019-05-02T18:18:46.663Z,16.67
2019-05-02T18:21:17.292Z,16.40
2019-05-02T18:23:43.573Z,17.93
2019-05-02T18:26:12.000Z,17.33
2019-05-02T18:28:46.890Z,18.83
2019-05-02T18:31:12.181Z,19.03
2019-05-02T18:33:42.281Z,20.03
2019-05-02T18:36:11.062Z,20.63
2019-05-02T18:38:41.594Z,18.83
2019-05-02T18:41:09.633Z,19.60
2019-05-02T18:43:43.446Z,21.57
2019-05-02T18:46:08.351Z,20.80
2019-05-02T18:48:41.403Z,19.77
2019-05-02T18:51:06.876Z,19.87
2019-05-02T18:53:35.345Z,20.83
2019-05-02T18:56:04.377Z,19.63
2019-05-02T18:58:36.338Z,44.00
2019-05-02T19:01:03.545Z,31.27
2019-05-02T19:03:33.368Z,21.93
2019-05-02T19:06:02.239Z,22.13
2019-05-02T19:08:45.263Z,23.43
2019-05-02T19:11:10.112Z,24.27
2019-05-02T19:13:37.659Z,25.77
2019-05-02T19:16:05.030Z,24.80
2019-05-02T19:18:33.452Z,24.93
2019-05-02T19:21:03.761Z,26.10
2019-05-02T19:23:33.149Z,25.93
2019-05-02T19:26:09.685Z,26.10
2019-05-02T19:28:38.355Z,26.57
2019-05-02T19:31:07.129Z,27.10
2019-05-02T19:33:37.701Z,27.17
2019-05-02T19:36:05.881Z,27.83
2019-05-02T19:38:34.828Z,29.97
2019-05-02T19:41:08.808Z,28.77
2019-05-02T19:43:34.923Z,29.07
2019-05-02T19:46:04.098Z,28.87
2019-05-02T19:48:36.952Z,28.40
2019-05-02T19:51:02.652Z,25.83
2019-05-02T19:53:32.231Z,27.23
2019-05-02T19:56:02.659Z,25.93
2019-05-02T19:58:32.175Z,26.87
2019-05-02T20:01:02.152Z,25.77
2019-05-02T20:03:32.350Z,24.50
2019-05-02T20:06:02.277Z,25.03
2019-05-02T20:08:32.663Z,25.53
2019-05-02T20:11:02.159Z,24.27
2019-05-02T20:13:32.595Z,24.17
2019-05-02T20:16:22.378Z,24.17
2019-05-02T20:18:52.495Z,23.27
2019-05-02T20:21:27.358Z,23.60
2019-05-02T20:23:52.890Z,25.07
2019-05-02T20:26:22.129Z,24.43
2019-05-02T20:28:52.626Z,24.47
2019-05-02T20:31:21.723Z,23.70
2019-05-02T20:33:52.059Z,23.47
2019-05-02T20:36:22.608Z,24.60
2019-05-02T20:38:52.592Z,25.40
2019-05-02T20:41:22.385Z,26.47
2019-05-02T20:43:51.675Z,25.30
2019-05-02T20:46:21.847Z,26.68
2019-05-02T20:48:52.399Z,30.57
2019-05-02T20:51:22.582Z,27.80
2019-05-02T20:53:52.587Z,30.07
2019-05-02T20:56:22.856Z,28.70
2019-05-02T20:58:52.618Z,30.17
2019-05-02T21:01:21.539Z,29.30
2019-05-02T21:03:52.054Z,30.77
2019-05-02T21:06:36.479Z,31.25
2019-05-02T21:08:56.188Z,32.07
2019-05-02T21:11:25.646Z,31.20
2019-05-02T21:13:54.114Z,43.13
2019-05-02T21:16:22.548Z,31.43
2019-05-02T21:18:50.968Z,29.57
2019-05-02T21:21:22.003Z,26.00
2019-05-02T21:23:52.761Z,27.77
2019-05-02T21:26:22.050Z,25.25
2019-05-02T21:28:52.176Z,25.70
2019-05-02T21:31:22.393Z,22.90
2019-05-02T21:33:51.964Z,21.73
2019-05-02T21:36:22.541Z,23.07
2019-05-02T21:38:52.097Z,24.73
2019-05-02T21:41:22.210Z,24.50
2019-05-02T21:43:51.898Z,22.90
2019-05-02T21:46:22.296Z,21.40
2019-05-02T21:48:52.510Z,22.97
2019-05-02T21:51:28.127Z,22.03
2019-05-02T21:54:07.173Z,20.30
2019-05-02T21:56:37.217Z,34.00
2019-05-02T21:59:07.288Z,24.97
2019-05-02T22:01:43.063Z,18.30
2019-05-02T22:04:13.075Z,18.97
2019-05-02T22:06:42.689Z,17.12
2019-05-02T22:09:12.283Z,19.47
2019-05-02T22:11:42.916Z,18.43
2019-05-02T22:14:13.012Z,19.23
2019-05-02T22:16:42.142Z,19.30
2019-05-02T22:19:10.860Z,19.87
2019-05-02T22:21:39.298Z,19.57
2019-05-02T22:24:11.536Z,18.73
2019-05-02T22:26:38.006Z,19.77
2019-05-02T22:29:06.502Z,18.80
2019-05-02T22:31:34.910Z,17.93
2019-05-02T22:34:03.336Z,18.20
2019-05-02T22:36:32.697Z,17.70
2019-05-02T22:39:03.015Z,17.67
2019-05-02T22:41:32.561Z,17.47
2019-05-02T22:44:01.923Z,17.97
2019-05-02T22:46:43.197Z,17.67
2019-05-02T22:49:14.644Z,17.40
2019-05-02T22:51:43.305Z,16.57
2019-05-02T22:54:24.231Z,15.70
2019-05-02T22:56:42.584Z,13.47
2019-05-02T22:59:11.226Z,13.10
2019-05-02T23:01:39.662Z,12.43
2019-05-02T23:04:08.077Z,13.80
2019-05-02T23:06:36.509Z,13.20
2019-05-02T23:09:07.126Z,11.73
2019-05-02T23:11:35.896Z,12.87
2019-05-02T23:14:05.327Z,13.43
2019-05-02T23:16:34.615Z,14.23
2019-05-02T23:19:03.212Z,14.63
2019-05-02T23:21:32.559Z,14.03
2019-05-02T23:24:02.915Z,14.27
2019-05-02T23:26:32.963Z,13.47
2019-05-02T23:29:02.997Z,13.43
2019-05-02T23:31:31.781Z,13.67
2019-05-02T23:34:02.027Z,13.50
2019-05-02T23:36:32.499Z,13.93
2019-05-02T23:39:01.926Z,14.50
2019-05-02T23:41:30.462Z,15.60
2019-05-02T23:43:59.540Z,16.17
2019-05-02T23:46:27.939Z,15.97
2019-05-02T23:48:56.353Z,16.63
2019-05-02T23:51:24.797Z,15.13
2019-05-02T23:53:53.212Z,16.10
2019-05-02T23:56:22.167Z,15.63
2019-05-02T23:58:51.974Z,15.10
